createdAt,value
2022-12-25T00:02:21.353Z,11.60
2022-12-25T00:04:48.165Z,11.60
2022-12-25T00:07:14.908Z,11.60
2022-12-25T00:09:41.693Z,11.50
2022-12-25T00:12:08.536Z,11.40
2022-12-25T00:14:35.295Z,11.30
2022-12-25T00:17:02.123Z,11.30
2022-12-25T00:19:28.974Z,11.30
2022-12-25T00:21:55.665Z,11.30
2022-12-25T00:24:22.656Z,11.20
2022-12-25T00:26:49.404Z,11.20
2022-12-25T00:29:16.142Z,11.20
2022-12-25T00:31:43.065Z,11.20
2022-12-25T00:34:10.019Z,11.10
2022-12-25T00:36:41.638Z,11.00
2022-12-25T00:39:09.132Z,11.00
2022-12-25T00:41:56.635Z,11.10
2022-12-25T00:44:23.354Z,11.10
2022-12-25T00:46:50.132Z,11.10
2022-12-25T00:49:17.026Z,11.10
2022-12-25T00:51:43.923Z,11.10
2022-12-25T00:54:10.680Z,11.00
2022-12-25T00:56:37.494Z,11.00
2022-12-25T00:59:04.327Z,11.20
2022-12-25T01:01:31.379Z,10.90
2022-12-25T01:03:58.655Z,10.90
2022-12-25T01:06:26.067Z,11.00
2022-12-25T01:09:11.446Z,11.00
2022-12-25T01:11:38.174Z,10.80
2022-12-25T01:14:04.915Z,10.80
2022-12-25T01:16:31.843Z,10.70
2022-12-25T01:18:59.100Z,10.70
2022-12-25T01:21:26.173Z,10.70
2022-12-25T01:23:53.758Z,10.70
2022-12-25T01:26:23.999Z,10.80
2022-12-25T01:28:51.511Z,10.80
2022-12-25T01:31:20.733Z,10.80
2022-12-25T01:33:47.774Z,10.60
2022-12-25T01:36:25.226Z,10.70
2022-12-25T01:38:53.710Z,10.60
2022-12-25T01:41:22.674Z,10.60
2022-12-25T01:44:15.735Z,10.60
2022-12-25T01:46:43.640Z,10.70
2022-12-25T01:49:16.892Z,10.50
2022-12-25T01:51:52.570Z,10.50
2022-12-25T01:54:27.931Z,10.50
2022-12-25T01:56:58.767Z,10.60
2022-12-25T01:59:27.189Z,10.60
2022-12-25T02:01:54.264Z,10.70
2022-12-25T02:04:24.132Z,10.60
2022-12-25T02:06:52.145Z,10.50
2022-12-25T02:09:20.415Z,10.40
2022-12-25T02:11:59.292Z,10.50
2022-12-25T02:14:32.580Z,10.40
2022-12-25T02:17:05.777Z,10.40
2022-12-25T02:20:12.428Z,10.20
2022-12-25T02:23:10.850Z,10.40
2022-12-25T02:25:48.183Z,10.50
2022-12-25T02:28:36.176Z,10.60
2022-12-25T02:31:13.603Z,10.60
2022-12-25T02:34:03.001Z,10.70
2022-12-25T02:36:38.887Z,11.90
2022-12-25T02:39:37.786Z,10.70
2022-12-25T02:42:09.740Z,10.80
2022-12-25T02:44:59.581Z,10.80
2022-12-25T02:47:45.598Z,10.70
2022-12-25T02:50:50.454Z,10.90
2022-12-25T02:53:37.029Z,10.90
2022-12-25T02:56:22.450Z,11.00
2022-12-25T02:59:08.198Z,11.20
2022-12-25T03:01:55.896Z,11.20
2022-12-25T03:04:43.629Z,11.20
2022-12-25T03:07:17.069Z,11.20
2022-12-25T03:10:08.295Z,11.30
2022-12-25T03:12:50.240Z,11.30
2022-12-25T03:15:38.011Z,12.80
2022-12-25T03:18:08.497Z,11.40
2022-12-25T03:20:55.071Z,11.30
2022-12-25T03:23:46.572Z,11.10
2022-12-25T03:26:31.700Z,11.30
2022-12-25T03:28:58.493Z,11.40
2022-12-25T03:31:51.585Z,11.50
2022-12-25T03:35:02.159Z,11.60
2022-12-25T03:37:47.993Z,11.80
2022-12-25T03:40:50.290Z,11.60
2022-12-25T03:44:01.689Z,11.70
2022-12-25T03:46:53.645Z,11.60
2022-12-25T03:49:51.131Z,11.60
2022-12-25T03:52:37.894Z,11.50
2022-12-25T03:55:28.411Z,11.50
2022-12-25T03:58:14.256Z,11.50
2022-12-25T04:00:59.628Z,11.50
2022-12-25T04:03:44.770Z,11.60
2022-12-25T04:06:30.239Z,11.50
2022-12-25T04:09:15.765Z,11.70
2022-12-25T04:12:03.011Z,11.60
2022-12-25T04:14:49.130Z,11.60
2022-12-25T04:17:34.356Z,11.50
2022-12-25T04:20:19.584Z,11.50
2022-12-25T04:23:05.447Z,11.50
2022-12-25T04:25:50.766Z,11.20
2022-12-25T04:28:36.471Z,11.20
2022-12-25T04:31:21.917Z,11.30
2022-12-25T04:34:07.598Z,11.30
2022-12-25T04:36:34.334Z,11.20
2022-12-25T04:39:01.067Z,11.20
2022-12-25T04:41:27.856Z,11.20
2022-12-25T04:43:54.602Z,11.10
2022-12-25T04:46:21.414Z,11.20
2022-12-25T04:48:48.235Z,11.50
2022-12-25T04:51:18.641Z,11.10
2022-12-25T04:53:46.585Z,11.20
2022-12-25T04:56:14.066Z,11.20
2022-12-25T04:58:41.471Z,11.10
2022-12-25T05:01:08.818Z,11.10
2022-12-25T05:03:36.159Z,11.20
2022-12-25T05:06:04.588Z,11.10
2022-12-25T05:08:32.906Z,11.20
2022-12-25T05:11:00.266Z,11.20
2022-12-25T05:13:27.017Z,11.20
2022-12-25T05:15:53.843Z,11.20
2022-12-25T05:18:20.617Z,11.30
2022-12-25T05:20:54.521Z,11.40
2022-12-25T05:23:22.368Z,11.30
2022-12-25T05:25:49.142Z,11.30
2022-12-25T05:28:16.104Z,11.10
2022-12-25T05:30:43.131Z,11.10
2022-12-25T05:33:09.984Z,11.10
2022-12-25T05:35:38.163Z,11.10
2022-12-25T05:38:06.080Z,11.00
2022-12-25T05:40:33.565Z,11.20
2022-12-25T05:43:00.664Z,11.30
2022-12-25T05:45:27.434Z,11.20
2022-12-25T05:47:54.135Z,11.10
2022-12-25T05:50:20.928Z,11.10
2022-12-25T05:52:47.759Z,11.20
2022-12-25T05:55:14.561Z,11.30
2022-12-25T05:57:41.324Z,11.30
2022-12-25T06:00:08.677Z,11.40
2022-12-25T06:02:36.184Z,11.20
2022-12-25T06:05:04.274Z,11.20
2022-12-25T06:07:31.177Z,11.20
2022-12-25T06:09:57.914Z,11.10
2022-12-25T06:12:24.726Z,11.00
2022-12-25T06:14:51.442Z,10.80
2022-12-25T06:17:18.243Z,10.80
2022-12-25T06:19:45.061Z,10.90
2022-12-25T06:22:14.692Z,10.80
2022-12-25T06:24:41.587Z,10.80
2022-12-25T06:27:08.378Z,11.00
2022-12-25T06:29:35.195Z,10.90
2022-12-25T06:32:01.986Z,10.80
2022-12-25T06:34:28.874Z,10.90
2022-12-25T06:36:55.655Z,10.90
2022-12-25T06:39:22.603Z,11.00
2022-12-25T06:41:49.315Z,11.00
2022-12-25T06:44:16.108Z,11.10
2022-12-25T06:46:42.909Z,11.20
2022-12-25T06:49:10.544Z,11.30
2022-12-25T06:51:38.171Z,11.40
2022-12-25T06:54:05.994Z,11.30
2022-12-25T06:56:33.956Z,11.20
2022-12-25T06:59:03.946Z,11.20
2022-12-25T07:01:35.487Z,11.30
2022-12-25T07:04:11.632Z,11.40
2022-12-25T07:06:38.488Z,11.40
2022-12-25T07:09:07.180Z,11.50
2022-12-25T07:11:34.008Z,11.50
2022-12-25T07:14:00.816Z,11.50
2022-12-25T07:16:27.688Z,11.50
2022-12-25T07:18:54.554Z,11.40
2022-12-25T07:21:21.844Z,11.50
2022-12-25T07:23:50.138Z,11.50
2022-12-25T07:26:17.590Z,11.60
2022-12-25T07:28:44.773Z,11.50
2022-12-25T07:31:14.460Z,11.30
2022-12-25T07:33:41.959Z,11.30
2022-12-25T07:36:12.687Z,11.20
2022-12-25T07:38:43.682Z,11.30
2022-12-25T07:41:12.847Z,11.40
2022-12-25T07:43:41.844Z,11.30
2022-12-25T07:46:11.099Z,11.30
2022-12-25T07:48:38.213Z,11.50
2022-12-25T07:51:12.089Z,11.40
2022-12-25T07:53:39.775Z,11.30
2022-12-25T07:56:16.249Z,11.20
2022-12-25T07:58:44.130Z,11.30
2022-12-25T08:01:21.196Z,11.30
2022-12-25T08:03:52.538Z,11.30
2022-12-25T08:06:20.572Z,11.40
2022-12-25T08:08:47.735Z,11.50
2022-12-25T08:11:14.676Z,11.50
2022-12-25T08:13:41.483Z,11.50
2022-12-25T08:16:10.726Z,11.40
2022-12-25T08:18:39.787Z,11.50
2022-12-25T08:21:12.934Z,11.60
2022-12-25T08:23:42.891Z,11.70
2022-12-25T08:26:14.044Z,11.30
2022-12-25T08:28:41.442Z,11.40
2022-12-25T08:31:37.231Z,11.40
2022-12-25T08:34:07.056Z,11.50
2022-12-25T08:36:34.479Z,11.50
2022-12-25T08:39:03.210Z,11.40
2022-12-25T08:41:31.049Z,11.40
2022-12-25T08:43:58.470Z,11.50
2022-12-25T08:46:25.379Z,11.50
2022-12-25T08:48:52.317Z,11.40
2022-12-25T08:51:21.738Z,11.40
2022-12-25T08:53:50.270Z,11.30
2022-12-25T08:56:19.072Z,11.60
2022-12-25T08:58:46.626Z,11.60
2022-12-25T09:01:13.851Z,11.70
2022-12-25T09:03:41.366Z,11.60
2022-12-25T09:06:12.164Z,11.70
2022-12-25T09:08:44.203Z,11.70
2022-12-25T09:11:15.992Z,11.60
2022-12-25T09:13:42.791Z,11.80
2022-12-25T09:16:13.146Z,11.90
2022-12-25T09:18:40.480Z,12.00
2022-12-25T09:21:10.420Z,11.80
2022-12-25T09:23:37.565Z,11.70
2022-12-25T09:26:06.353Z,11.80
2022-12-25T09:28:33.827Z,11.60
2022-12-25T09:31:00.772Z,11.70
2022-12-25T09:33:27.667Z,11.70
2022-12-25T09:36:03.230Z,11.90
2022-12-25T09:38:31.407Z,12.00
2022-12-25T09:41:19.989Z,12.00
2022-12-25T09:43:55.096Z,12.10
2022-12-25T09:46:33.048Z,11.90
2022-12-25T09:49:13.464Z,12.20
2022-12-25T09:51:42.853Z,12.20
2022-12-25T09:54:33.132Z,10.90
2022-12-25T09:57:00.270Z,11.80
2022-12-25T09:59:30.714Z,11.90
2022-12-25T10:02:25.566Z,12.00
2022-12-25T10:05:07.733Z,12.10
2022-12-25T10:07:59.801Z,12.20
2022-12-25T10:10:41.917Z,12.00
2022-12-25T10:13:36.894Z,12.10
2022-12-25T10:16:21.961Z,12.00
2022-12-25T10:19:20.183Z,12.30
2022-12-25T10:21:50.039Z,12.10
2022-12-25T10:24:39.413Z,11.90
2022-12-25T10:27:20.946Z,12.20
2022-12-25T10:29:53.879Z,12.20
2022-12-25T10:32:21.466Z,12.10
2022-12-25T10:34:48.955Z,12.20
2022-12-25T10:37:17.011Z,12.10
2022-12-25T10:39:49.186Z,12.20
2022-12-25T10:42:26.682Z,12.30
2022-12-25T10:45:01.579Z,12.40
2022-12-25T10:47:34.706Z,12.40
2022-12-25T10:50:10.433Z,12.30
2022-12-25T10:53:00.199Z,12.30
2022-12-25T10:55:31.140Z,12.40
2022-12-25T10:57:59.030Z,12.10
2022-12-25T11:00:31.322Z,12.30
2022-12-25T11:02:59.276Z,12.50
2022-12-25T11:05:28.500Z,12.40
2022-12-25T11:07:56.977Z,13.30
2022-12-25T11:10:30.286Z,12.30
2022-12-25T11:12:58.871Z,12.40
2022-12-25T11:15:36.780Z,12.30
2022-12-25T11:18:17.575Z,12.40
2022-12-25T11:21:14.728Z,12.30
2022-12-25T11:23:56.518Z,12.40
2022-12-25T11:26:23.542Z,12.40
2022-12-25T11:28:52.224Z,12.60
2022-12-25T11:31:29.737Z,12.70
2022-12-25T11:33:56.585Z,12.80
2022-12-25T11:36:51.192Z,12.60
2022-12-25T11:39:25.248Z,12.60
2022-12-25T11:41:57.133Z,12.70
2022-12-25T11:44:52.608Z,12.60
2022-12-25T11:47:34.039Z,12.60
2022-12-25T11:50:14.476Z,12.60
2022-12-25T11:52:44.856Z,12.60
2022-12-25T11:55:15.573Z,12.70
2022-12-25T11:57:46.126Z,12.70
2022-12-25T12:00:15.803Z,12.80
2022-12-25T12:03:11.604Z,12.90
2022-12-25T12:05:51.617Z,12.80
2022-12-25T12:08:18.572Z,12.80
2022-12-25T12:10:57.311Z,12.70
2022-12-25T12:13:59.412Z,12.80
2022-12-25T12:16:26.602Z,12.60
2022-12-25T12:18:53.517Z,12.80
2022-12-25T12:21:31.117Z,12.80
2022-12-25T12:24:10.977Z,12.90
2022-12-25T12:26:40.987Z,12.90
2022-12-25T12:29:27.999Z,12.80
2022-12-25T12:32:00.743Z,12.90
2022-12-25T12:34:42.345Z,13.10
2022-12-25T12:37:25.807Z,12.90
2022-12-25T12:39:56.293Z,12.80
2022-12-25T12:42:40.380Z,12.60
2022-12-25T12:45:25.075Z,12.80
2022-12-25T12:47:52.783Z,12.90
2022-12-25T12:50:36.685Z,12.90
2022-12-25T12:53:21.379Z,13.00
2022-12-25T12:55:48.653Z,13.00
2022-12-25T12:58:34.360Z,13.00
2022-12-25T13:01:28.069Z,12.80
2022-12-25T13:04:21.657Z,12.80
2022-12-25T13:07:10.788Z,12.90
2022-12-25T13:10:05.798Z,13.00
2022-12-25T13:12:32.736Z,12.90
2022-12-25T13:15:00.906Z,13.00
2022-12-25T13:17:28.812Z,12.80
2022-12-25T13:19:58.687Z,12.70
2022-12-25T13:22:34.756Z,12.60
2022-12-25T13:25:05.324Z,12.60
2022-12-25T13:27:33.555Z,12.60
2022-12-25T13:30:00.490Z,12.50
2022-12-25T13:32:33.394Z,12.60
2022-12-25T13:35:00.820Z,12.50
2022-12-25T13:37:30.355Z,12.40
2022-12-25T13:40:03.703Z,12.30
2022-12-25T13:42:33.101Z,12.30
2022-12-25T13:45:21.478Z,12.20
2022-12-25T13:47:54.915Z,12.30
2022-12-25T13:50:22.690Z,12.40
2022-12-25T13:52:54.944Z,12.20
2022-12-25T13:55:24.776Z,12.30
2022-12-25T13:57:59.462Z,12.20
2022-12-25T14:00:40.699Z,12.30
2022-12-25T14:03:14.193Z,12.20
2022-12-25T14:05:43.368Z,12.40
2022-12-25T14:08:25.402Z,12.30
2022-12-25T14:10:53.771Z,12.20
2022-12-25T14:13:24.817Z,12.20
2022-12-25T14:15:53.628Z,12.20
2022-12-25T14:18:22.714Z,12.20
2022-12-25T14:21:08.032Z,12.10
2022-12-25T14:23:46.876Z,12.10
2022-12-25T14:26:18.571Z,12.20
2022-12-25T14:29:15.691Z,12.10
2022-12-25T14:31:45.815Z,12.10
2022-12-25T14:34:24.215Z,12.20
2022-12-25T14:36:52.659Z,12.00
2022-12-25T14:39:36.269Z,12.00
2022-12-25T14:42:22.451Z,12.00
2022-12-25T14:45:34.847Z,12.20
2022-12-25T14:48:22.935Z,12.10
2022-12-25T14:51:17.298Z,12.00
2022-12-25T14:54:02.899Z,12.30
2022-12-25T14:56:38.123Z,12.50
2022-12-25T14:59:07.152Z,12.30
2022-12-25T15:01:39.890Z,12.30
2022-12-25T15:04:12.853Z,12.30
2022-12-25T15:06:42.276Z,12.30
2022-12-25T15:09:16.765Z,12.50
2022-12-25T15:11:43.562Z,12.50
2022-12-25T15:14:10.311Z,12.60
2022-12-25T15:16:50.859Z,12.70
2022-12-25T15:19:38.267Z,12.60
2022-12-25T15:22:05.727Z,12.70
2022-12-25T15:24:32.617Z,12.70
2022-12-25T15:27:00.603Z,12.70
2022-12-25T15:30:00.010Z,12.90
2022-12-25T15:32:18.461Z,12.80
2022-12-25T15:34:47.147Z,12.80
2022-12-25T15:37:14.643Z,12.80
2022-12-25T15:39:41.570Z,12.80
2022-12-25T15:42:16.889Z,12.80
2022-12-25T15:44:44.767Z,12.90
2022-12-25T15:47:17.546Z,12.80
2022-12-25T15:49:44.397Z,12.80
2022-12-25T15:52:19.394Z,12.80
2022-12-25T15:54:46.271Z,12.70
2022-12-25T15:57:22.406Z,12.50
2022-12-25T15:59:49.241Z,12.30
2022-12-25T16:02:19.524Z,12.20
2022-12-25T16:04:47.063Z,12.10
2022-12-25T16:07:16.445Z,11.90
2022-12-25T16:09:43.373Z,11.60
2022-12-25T16:12:10.822Z,11.60
2022-12-25T16:14:37.861Z,11.60
2022-12-25T16:17:04.976Z,11.40
2022-12-25T16:19:31.861Z,11.00
2022-12-25T16:21:58.925Z,10.70
2022-12-25T16:24:25.675Z,10.70
2022-12-25T16:26:52.820Z,10.60
2022-12-25T16:29:19.591Z,10.80
2022-12-25T16:31:46.452Z,10.70
2022-12-25T16:34:13.296Z,10.70
2022-12-25T16:36:40.239Z,10.80
2022-12-25T16:39:07.117Z,10.80
2022-12-25T16:41:34.840Z,10.60
2022-12-25T16:44:10.166Z,10.30
2022-12-25T16:46:39.500Z,10.70
2022-12-25T16:49:06.833Z,10.80
2022-12-25T16:51:33.612Z,10.90
2022-12-25T16:54:00.810Z,11.00
2022-12-25T16:56:29.246Z,11.10
2022-12-25T16:58:57.300Z,11.00
2022-12-25T17:01:24.802Z,11.00
2022-12-25T17:03:51.996Z,11.10
2022-12-25T17:06:25.466Z,11.20
2022-12-25T17:08:55.590Z,11.00
2022-12-25T17:11:24.297Z,11.20
2022-12-25T17:13:51.095Z,11.10
2022-12-25T17:16:20.871Z,11.20
2022-12-25T17:18:47.689Z,11.20
2022-12-25T17:21:17.135Z,11.10
2022-12-25T17:23:45.060Z,10.90
2022-12-25T17:26:12.331Z,10.80
2022-12-25T17:28:39.125Z,10.80
2022-12-25T17:31:08.869Z,10.90
2022-12-25T17:33:36.511Z,11.00
2022-12-25T17:36:05.649Z,10.90
2022-12-25T17:38:33.396Z,11.10
2022-12-25T17:41:02.375Z,11.10
2022-12-25T17:43:29.491Z,11.00
2022-12-25T17:45:56.267Z,10.90
2022-12-25T17:48:23.036Z,11.00
2022-12-25T17:50:49.831Z,11.00
2022-12-25T17:53:16.569Z,11.10
2022-12-25T17:55:43.900Z,11.00
2022-12-25T17:58:10.729Z,11.00
2022-12-25T18:00:37.587Z,10.90
2022-12-25T18:03:11.197Z,10.90
2022-12-25T18:05:38.783Z,10.80
2022-12-25T18:08:06.878Z,10.80
2022-12-25T18:10:38.640Z,10.80
2022-12-25T18:13:05.791Z,10.90
2022-12-25T18:15:36.131Z,10.80
2022-12-25T18:18:03.254Z,10.70
2022-12-25T18:20:35.926Z,10.80
2022-12-25T18:23:06.303Z,10.80
2022-12-25T18:25:33.827Z,9.90
2022-12-25T18:28:02.731Z,10.90
2022-12-25T18:30:29.818Z,10.90
2022-12-25T18:32:56.795Z,10.90
2022-12-25T18:35:29.426Z,10.90
2022-12-25T18:37:56.548Z,10.60
2022-12-25T18:40:23.530Z,9.30
2022-12-25T18:42:59.360Z,10.70
2022-12-25T18:45:29.853Z,10.80
2022-12-25T18:47:56.863Z,10.70
2022-12-25T18:50:23.699Z,10.60
2022-12-25T18:52:51.941Z,10.60
2022-12-25T18:55:19.219Z,10.60
2022-12-25T18:57:46.541Z,10.60
2022-12-25T19:00:14.817Z,10.50
2022-12-25T19:02:41.968Z,10.30
2022-12-25T19:05:09.208Z,10.30
2022-12-25T19:07:36.822Z,10.30
2022-12-25T19:10:05.456Z,10.40
2022-12-25T19:12:32.896Z,10.30
2022-12-25T19:14:59.837Z,10.20
2022-12-25T19:17:31.587Z,10.10
2022-12-25T19:19:59.038Z,10.20
2022-12-25T19:22:26.992Z,10.20
2022-12-25T19:24:53.760Z,10.30
2022-12-25T19:27:20.622Z,10.30
2022-12-25T19:29:47.458Z,10.30
2022-12-25T19:32:15.297Z,10.40
2022-12-25T19:34:42.079Z,10.40
2022-12-25T19:37:08.841Z,10.20
2022-12-25T19:39:35.584Z,10.30
2022-12-25T19:42:02.319Z,10.30
2022-12-25T19:44:29.049Z,10.20
2022-12-25T19:46:55.897Z,10.10
2022-12-25T19:49:22.643Z,10.30
2022-12-25T19:51:49.415Z,10.30
2022-12-25T19:54:20.425Z,10.20
2022-12-25T19:56:48.350Z,10.20
2022-12-25T19:59:15.538Z,10.20
2022-12-25T20:01:42.716Z,10.20
2022-12-25T20:04:10.581Z,10.20
2022-12-25T20:06:39.156Z,10.30
2022-12-25T20:09:09.556Z,10.20
2022-12-25T20:11:37.598Z,10.20
2022-12-25T20:14:06.806Z,10.00
2022-12-25T20:16:36.371Z,10.10
2022-12-25T20:19:03.947Z,10.30
2022-12-25T20:21:30.908Z,10.30
2022-12-25T20:23:58.257Z,10.40
2022-12-25T20:26:30.441Z,10.40
2022-12-25T20:28:57.494Z,10.30
2022-12-25T20:31:36.005Z,10.30
2022-12-25T20:34:10.291Z,10.40
2022-12-25T20:36:38.415Z,10.40
2022-12-25T20:39:09.818Z,10.40
2022-12-25T20:41:37.691Z,10.40
2022-12-25T20:44:06.808Z,10.40
2022-12-25T20:46:34.139Z,10.30
2022-12-25T20:49:02.255Z,10.20
2022-12-25T20:51:29.166Z,10.40
2022-12-25T20:53:56.282Z,10.40
2022-12-25T20:56:25.410Z,10.40
2022-12-25T20:58:58.144Z,10.40
2022-12-25T21:01:26.288Z,10.40
2022-12-25T21:03:54.392Z,10.40
2022-12-25T21:06:21.833Z,10.50
2022-12-25T21:08:48.617Z,10.60
2022-12-25T21:11:16.785Z,10.40
2022-12-25T21:13:46.207Z,10.30
2022-12-25T21:16:16.748Z,10.40
2022-12-25T21:18:43.623Z,10.30
2022-12-25T21:21:10.950Z,10.30
2022-12-25T21:23:40.088Z,10.20
2022-12-25T21:26:21.421Z,10.20
2022-12-25T21:28:50.060Z,10.30
2022-12-25T21:31:17.643Z,10.30
2022-12-25T21:33:55.949Z,10.20
2022-12-25T21:36:31.388Z,10.30
2022-12-25T21:39:07.354Z,10.30
2022-12-25T21:41:37.465Z,10.20
2022-12-25T21:44:04.619Z,10.30
2022-12-25T21:46:32.016Z,10.10
2022-12-25T21:48:59.627Z,10.00
2022-12-25T21:51:50.296Z,10.10
2022-12-25T21:54:18.849Z,10.00
2022-12-25T21:56:48.055Z,9.70
2022-12-25T21:59:20.706Z,10.10
2022-12-25T22:01:49.019Z,10.30
2022-12-25T22:04:18.241Z,10.20
2022-12-25T22:07:04.518Z,10.30
2022-12-25T22:09:33.763Z,10.40
2022-12-25T22:12:20.107Z,10.40
2022-12-25T22:15:02.649Z,10.50
2022-12-25T22:17:53.976Z,10.40
2022-12-25T22:20:27.110Z,10.50
2022-12-25T22:22:54.500Z,10.30
2022-12-25T22:25:21.955Z,10.40
2022-12-25T22:27:49.509Z,10.40
2022-12-25T22:30:19.288Z,10.40
2022-12-25T22:32:46.752Z,10.20
2022-12-25T22:35:14.543Z,10.20
2022-12-25T22:37:42.544Z,10.20
2022-12-25T22:40:12.384Z,10.20
2022-12-25T22:42:39.232Z,10.20
2022-12-25T22:45:06.332Z,10.30
2022-12-25T22:47:33.247Z,10.30
2022-12-25T22:50:00.051Z,10.20
2022-12-25T22:52:27.079Z,10.30
2022-12-25T22:54:53.778Z,10.30
2022-12-25T22:57:20.501Z,10.40
2022-12-25T22:59:47.363Z,10.30
2022-12-25T23:02:14.327Z,10.30
2022-12-25T23:04:41.255Z,10.10
2022-12-25T23:07:08.683Z,10.10
2022-12-25T23:09:35.558Z,10.20
2022-12-25T23:12:02.464Z,10.20
2022-12-25T23:14:41.814Z,10.20
2022-12-25T23:17:31.528Z,10.10
2022-12-25T23:20:19.338Z,10.30
2022-12-25T23:23:06.036Z,10.00
2022-12-25T23:25:53.390Z,10.10
2022-12-25T23:28:40.878Z,10.10
2022-12-25T23:31:08.880Z,10.10
2022-12-25T23:33:35.666Z,10.00
2022-12-25T23:36:02.532Z,10.00
2022-12-25T23:38:29.582Z,10.00
2022-12-25T23:40:56.641Z,10.10
2022-12-25T23:43:23.463Z,10.00
2022-12-25T23:45:50.182Z,10.10
2022-12-25T23:48:17.079Z,10.10
2022-12-25T23:50:45.837Z,10.10
2022-12-25T23:53:12.942Z,10.10
2022-12-25T23:55:42.223Z,9.90
2022-12-25T23:58:10.065Z,10.00
